sensor_id;sensor_type;location;lat;lon;timestamp;P1;durP1;ratioP1;P2;durP2;ratioP2
12212;SDS011;6169;44.158;22.788;2023-02-28T00:01:55;28.97;;;16.23;;
12212;SDS011;6169;44.158;22.788;2023-02-28T00:06:59;26.83;;;14.07;;
12212;SDS011;6169;44.158;22.788;2023-02-28T00:12:01;27.33;;;15.10;;
12212;SDS011;6169;44.158;22.788;2023-02-28T00:17:10;26.00;;;13.93;;
12212;SDS011;6169;44.158;22.788;2023-02-28T00:22:14;27.43;;;13.43;;
12212;SDS011;6169;44.158;22.788;2023-02-28T00:27:17;35.37;;;18.87;;
12212;SDS011;6169;44.158;22.788;2023-02-28T00:32:20;23.27;;;13.67;;
12212;SDS011;6169;44.158;22.788;2023-02-28T00:37:24;25.77;;;13.73;;
12212;SDS011;6169;44.158;22.788;2023-02-28T00:42:26;23.80;;;12.57;;
12212;SDS011;6169;44.158;22.788;2023-02-28T00:47:28;21.87;;;12.83;;
12212;SDS011;6169;44.158;22.788;2023-02-28T00:52:32;35.67;;;20.43;;
12212;SDS011;6169;44.158;22.788;2023-02-28T00:57:35;39.17;;;20.77;;
12212;SDS011;6169;44.158;22.788;2023-02-28T01:02:37;33.07;;;16.10;;
12212;SDS011;6169;44.158;22.788;2023-02-28T01:07:41;28.50;;;16.03;;
12212;SDS011;6169;44.158;22.788;2023-02-28T01:12:43;28.90;;;15.67;;
12212;SDS011;6169;44.158;22.788;2023-02-28T01:17:45;33.07;;;16.73;;
12212;SDS011;6169;44.158;22.788;2023-02-28T01:22:49;28.47;;;16.30;;
12212;SDS011;6169;44.158;22.788;2023-02-28T01:27:52;30.23;;;15.77;;
12212;SDS011;6169;44.158;22.788;2023-02-28T01:32:54;27.57;;;14.70;;
12212;SDS011;6169;44.158;22.788;2023-02-28T01:37:58;26.83;;;15.27;;
12212;SDS011;6169;44.158;22.788;2023-02-28T01:43:00;22.37;;;12.77;;
12212;SDS011;6169;44.158;22.788;2023-02-28T01:48:03;29.90;;;14.60;;
12212;SDS011;6169;44.158;22.788;2023-02-28T01:53:12;25.03;;;13.77;;
12212;SDS011;6169;44.158;22.788;2023-02-28T01:58:18;23.83;;;13.60;;
12212;SDS011;6169;44.158;22.788;2023-02-28T02:03:20;28.33;;;14.43;;
12212;SDS011;6169;44.158;22.788;2023-02-28T02:08:25;25.30;;;13.47;;
12212;SDS011;6169;44.158;22.788;2023-02-28T02:13:33;28.67;;;14.03;;
12212;SDS011;6169;44.158;22.788;2023-02-28T02:18:57;22.40;;;12.90;;
12212;SDS011;6169;44.158;22.788;2023-02-28T02:30:05;23.90;;;13.60;;
12212;SDS011;6169;44.158;22.788;2023-02-28T02:35:21;36.47;;;18.80;;
12212;SDS011;6169;44.158;22.788;2023-02-28T02:40:30;23.57;;;13.00;;
12212;SDS011;6169;44.158;22.788;2023-02-28T02:45:38;21.30;;;13.70;;
12212;SDS011;6169;44.158;22.788;2023-02-28T02:50:48;26.53;;;13.43;;
12212;SDS011;6169;44.158;22.788;2023-02-28T02:55:54;22.63;;;11.83;;
12212;SDS011;6169;44.158;22.788;2023-02-28T03:00:58;26.23;;;14.40;;
12212;SDS011;6169;44.158;22.788;2023-02-28T03:06:05;24.33;;;14.10;;
12212;SDS011;6169;44.158;22.788;2023-02-28T03:11:11;28.07;;;14.57;;
12212;SDS011;6169;44.158;22.788;2023-02-28T03:16:28;28.20;;;14.13;;
12212;SDS011;6169;44.158;22.788;2023-02-28T03:26:42;24.90;;;13.33;;
12212;SDS011;6169;44.158;22.788;2023-02-28T03:31:49;26.53;;;13.93;;
12212;SDS011;6169;44.158;22.788;2023-02-28T03:36:57;25.70;;;14.03;;
12212;SDS011;6169;44.158;22.788;2023-02-28T03:42:04;22.40;;;12.47;;
12212;SDS011;6169;44.158;22.788;2023-02-28T03:47:12;24.03;;;12.20;;
12212;SDS011;6169;44.158;22.788;2023-02-28T03:52:19;22.27;;;13.40;;
12212;SDS011;6169;44.158;22.788;2023-02-28T03:57:27;25.87;;;13.63;;
12212;SDS011;6169;44.158;22.788;2023-02-28T04:02:37;23.40;;;13.65;;
12212;SDS011;6169;44.158;22.788;2023-02-28T04:07:42;25.33;;;13.27;;
12212;SDS011;6169;44.158;22.788;2023-02-28T04:12:45;25.67;;;13.00;;
12212;SDS011;6169;44.158;22.788;2023-02-28T04:17:47;28.00;;;14.40;;
12212;SDS011;6169;44.158;22.788;2023-02-28T04:22:51;27.67;;;15.27;;
12212;SDS011;6169;44.158;22.788;2023-02-28T04:27:53;28.83;;;14.90;;
12212;SDS011;6169;44.158;22.788;2023-02-28T04:32:56;28.50;;;14.30;;
12212;SDS011;6169;44.158;22.788;2023-02-28T04:37:59;27.17;;;14.80;;
12212;SDS011;6169;44.158;22.788;2023-02-28T04:43:02;28.80;;;16.10;;
12212;SDS011;6169;44.158;22.788;2023-02-28T04:48:05;29.43;;;18.33;;
12212;SDS011;6169;44.158;22.788;2023-02-28T04:53:08;33.13;;;17.60;;
12212;SDS011;6169;44.158;22.788;2023-02-28T04:58:11;29.10;;;17.73;;
12212;SDS011;6169;44.158;22.788;2023-02-28T05:03:13;33.70;;;18.03;;
12212;SDS011;6169;44.158;22.788;2023-02-28T05:08:17;32.63;;;15.93;;
12212;SDS011;6169;44.158;22.788;2023-02-28T05:13:19;33.27;;;16.57;;
12212;SDS011;6169;44.158;22.788;2023-02-28T05:18:22;31.17;;;17.57;;
12212;SDS011;6169;44.158;22.788;2023-02-28T05:23:25;33.00;;;18.37;;
12212;SDS011;6169;44.158;22.788;2023-02-28T05:28:29;30.43;;;17.07;;
12212;SDS011;6169;44.158;22.788;2023-02-28T05:33:32;34.73;;;18.83;;
12212;SDS011;6169;44.158;22.788;2023-02-28T05:38:35;25.40;;;14.70;;
12212;SDS011;6169;44.158;22.788;2023-02-28T05:43:38;13.27;;;7.60;;
12212;SDS011;6169;44.158;22.788;2023-02-28T05:48:40;10.20;;;6.97;;
12212;SDS011;6169;44.158;22.788;2023-02-28T05:53:45;10.57;;;7.03;;
12212;SDS011;6169;44.158;22.788;2023-02-28T05:58:48;10.40;;;6.87;;
12212;SDS011;6169;44.158;22.788;2023-02-28T06:03:50;13.00;;;9.70;;
12212;SDS011;6169;44.158;22.788;2023-02-28T06:08:54;11.70;;;8.27;;
12212;SDS011;6169;44.158;22.788;2023-02-28T06:13:57;10.77;;;8.23;;
12212;SDS011;6169;44.158;22.788;2023-02-28T06:19:03;10.90;;;7.70;;
12212;SDS011;6169;44.158;22.788;2023-02-28T06:24:07;13.13;;;10.57;;
12212;SDS011;6169;44.158;22.788;2023-02-28T06:29:10;12.63;;;8.87;;
12212;SDS011;6169;44.158;22.788;2023-02-28T06:34:13;13.37;;;10.10;;
12212;SDS011;6169;44.158;22.788;2023-02-28T06:39:17;12.03;;;8.30;;
12212;SDS011;6169;44.158;22.788;2023-02-28T06:44:20;16.43;;;11.63;;
12212;SDS011;6169;44.158;22.788;2023-02-28T06:49:23;14.07;;;9.40;;
12212;SDS011;6169;44.158;22.788;2023-02-28T06:54:27;13.17;;;10.10;;
12212;SDS011;6169;44.158;22.788;2023-02-28T06:59:29;13.23;;;9.23;;
12212;SDS011;6169;44.158;22.788;2023-02-28T07:04:31;13.40;;;9.50;;
12212;SDS011;6169;44.158;22.788;2023-02-28T07:09:35;13.07;;;8.70;;
12212;SDS011;6169;44.158;22.788;2023-02-28T07:14:38;11.93;;;9.70;;
12212;SDS011;6169;44.158;22.788;2023-02-28T07:19:40;13.07;;;8.90;;
12212;SDS011;6169;44.158;22.788;2023-02-28T07:24:44;11.97;;;8.13;;
12212;SDS011;6169;44.158;22.788;2023-02-28T07:29:46;12.90;;;7.53;;
12212;SDS011;6169;44.158;22.788;2023-02-28T07:34:48;15.50;;;8.03;;
12212;SDS011;6169;44.158;22.788;2023-02-28T07:39:52;11.27;;;8.60;;
12212;SDS011;6169;44.158;22.788;2023-02-28T07:44:54;10.77;;;7.70;;
12212;SDS011;6169;44.158;22.788;2023-02-28T07:49:57;12.63;;;8.90;;
12212;SDS011;6169;44.158;22.788;2023-02-28T07:55:01;12.60;;;8.43;;
12212;SDS011;6169;44.158;22.788;2023-02-28T08:00:05;13.90;;;8.43;;
12212;SDS011;6169;44.158;22.788;2023-02-28T08:05:10;12.37;;;9.33;;
12212;SDS011;6169;44.158;22.788;2023-02-28T08:10:14;11.77;;;8.73;;
12212;SDS011;6169;44.158;22.788;2023-02-28T08:15:16;13.23;;;8.30;;
12212;SDS011;6169;44.158;22.788;2023-02-28T08:20:19;12.13;;;7.80;;
12212;SDS011;6169;44.158;22.788;2023-02-28T08:25:23;12.80;;;9.27;;
12212;SDS011;6169;44.158;22.788;2023-02-28T08:30:25;11.97;;;8.83;;
12212;SDS011;6169;44.158;22.788;2023-02-28T08:35:27;13.07;;;9.13;;
12212;SDS011;6169;44.158;22.788;2023-02-28T08:40:31;14.23;;;10.83;;
12212;SDS011;6169;44.158;22.788;2023-02-28T08:45:33;15.57;;;9.43;;
12212;SDS011;6169;44.158;22.788;2023-02-28T08:50:36;15.00;;;10.50;;
12212;SDS011;6169;44.158;22.788;2023-02-28T08:55:39;18.00;;;10.40;;
12212;SDS011;6169;44.158;22.788;2023-02-28T09:00:42;21.40;;;13.50;;
12212;SDS011;6169;44.158;22.788;2023-02-28T09:05:51;23.27;;;11.37;;
12212;SDS011;6169;44.158;22.788;2023-02-28T09:10:55;15.93;;;10.18;;
12212;SDS011;6169;44.158;22.788;2023-02-28T09:15:58;21.50;;;12.80;;
12212;SDS011;6169;44.158;22.788;2023-02-28T09:21:02;18.60;;;12.60;;
12212;SDS011;6169;44.158;22.788;2023-02-28T09:26:06;23.17;;;13.43;;
12212;SDS011;6169;44.158;22.788;2023-02-28T09:31:13;24.47;;;15.53;;
12212;SDS011;6169;44.158;22.788;2023-02-28T09:36:16;18.67;;;12.23;;
12212;SDS011;6169;44.158;22.788;2023-02-28T09:41:21;21.90;;;14.23;;
12212;SDS011;6169;44.158;22.788;2023-02-28T09:46:29;22.17;;;12.53;;
12212;SDS011;6169;44.158;22.788;2023-02-28T09:51:38;20.45;;;14.13;;
12212;SDS011;6169;44.158;22.788;2023-02-28T09:56:50;22.13;;;14.70;;
12212;SDS011;6169;44.158;22.788;2023-02-28T10:01:56;24.77;;;15.03;;
12212;SDS011;6169;44.158;22.788;2023-02-28T10:07:02;21.57;;;12.73;;
12212;SDS011;6169;44.158;22.788;2023-02-28T10:12:19;24.83;;;14.20;;
12212;SDS011;6169;44.158;22.788;2023-02-28T10:17:22;22.57;;;11.50;;
12212;SDS011;6169;44.158;22.788;2023-02-28T10:22:28;22.63;;;13.43;;
12212;SDS011;6169;44.158;22.788;2023-02-28T10:27:37;20.13;;;12.40;;
12212;SDS011;6169;44.158;22.788;2023-02-28T10:32:39;18.83;;;12.37;;
12212;SDS011;6169;44.158;22.788;2023-02-28T10:37:49;17.70;;;11.43;;
12212;SDS011;6169;44.158;22.788;2023-02-28T10:42:56;18.80;;;11.87;;
12212;SDS011;6169;44.158;22.788;2023-02-28T10:47:59;24.73;;;15.47;;
12212;SDS011;6169;44.158;22.788;2023-02-28T10:53:07;21.07;;;12.50;;
12212;SDS011;6169;44.158;22.788;2023-02-28T10:58:30;25.57;;;14.97;;
12212;SDS011;6169;44.158;22.788;2023-02-28T11:03:50;24.63;;;14.30;;
12212;SDS011;6169;44.158;22.788;2023-02-28T11:08:54;23.77;;;15.03;;
12212;SDS011;6169;44.158;22.788;2023-02-28T11:14:02;25.03;;;15.37;;
12212;SDS011;6169;44.158;22.788;2023-02-28T11:19:07;21.07;;;12.70;;
12212;SDS011;6169;44.158;22.788;2023-02-28T11:24:23;22.87;;;14.43;;
12212;SDS011;6169;44.158;22.788;2023-02-28T11:29:31;25.53;;;15.90;;
12212;SDS011;6169;44.158;22.788;2023-02-28T11:34:35;20.27;;;13.00;;
12212;SDS011;6169;44.158;22.788;2023-02-28T11:39:38;19.80;;;13.03;;
12212;SDS011;6169;44.158;22.788;2023-02-28T11:44:45;23.60;;;13.60;;
12212;SDS011;6169;44.158;22.788;2023-02-28T11:50:00;23.13;;;14.97;;
12212;SDS011;6169;44.158;22.788;2023-02-28T11:55:14;19.73;;;12.50;;
12212;SDS011;6169;44.158;22.788;2023-02-28T12:00:28;22.63;;;14.87;;
12212;SDS011;6169;44.158;22.788;2023-02-28T12:05:41;24.97;;;13.90;;
12212;SDS011;6169;44.158;22.788;2023-02-28T12:10:51;17.40;;;11.40;;
12212;SDS011;6169;44.158;22.788;2023-02-28T12:21:54;20.90;;;14.07;;
12212;SDS011;6169;44.158;22.788;2023-02-28T12:27:07;15.50;;;11.33;;
12212;SDS011;6169;44.158;22.788;2023-02-28T12:32:16;22.27;;;14.60;;
12212;SDS011;6169;44.158;22.788;2023-02-28T12:37:22;20.50;;;13.07;;
12212;SDS011;6169;44.158;22.788;2023-02-28T12:42:30;20.90;;;12.87;;
12212;SDS011;6169;44.158;22.788;2023-02-28T12:47:40;22.50;;;14.43;;
12212;SDS011;6169;44.158;22.788;2023-02-28T12:52:48;21.47;;;14.37;;
12212;SDS011;6169;44.158;22.788;2023-02-28T12:57:58;26.53;;;14.83;;
12212;SDS011;6169;44.158;22.788;2023-02-28T13:03:23;23.67;;;15.53;;
12212;SDS011;6169;44.158;22.788;2023-02-28T13:09:00;21.33;;;13.50;;
12212;SDS011;6169;44.158;22.788;2023-02-28T13:14:06;23.90;;;14.00;;
12212;SDS011;6169;44.158;22.788;2023-02-28T13:19:23;22.13;;;13.17;;
12212;SDS011;6169;44.158;22.788;2023-02-28T13:24:41;24.33;;;14.77;;
12212;SDS011;6169;44.158;22.788;2023-02-28T13:29:45;18.50;;;12.33;;
12212;SDS011;6169;44.158;22.788;2023-02-28T13:40:35;20.53;;;12.50;;
12212;SDS011;6169;44.158;22.788;2023-02-28T13:45:38;18.67;;;12.40;;
12212;SDS011;6169;44.158;22.788;2023-02-28T13:51:07;18.33;;;13.20;;
12212;SDS011;6169;44.158;22.788;2023-02-28T13:56:43;21.20;;;13.75;;
12212;SDS011;6169;44.158;22.788;2023-02-28T14:01:57;25.03;;;14.43;;
12212;SDS011;6169;44.158;22.788;2023-02-28T14:07:17;21.43;;;14.33;;
12212;SDS011;6169;44.158;22.788;2023-02-28T14:18:14;24.03;;;14.13;;
12212;SDS011;6169;44.158;22.788;2023-02-28T14:23:30;20.30;;;13.97;;
12212;SDS011;6169;44.158;22.788;2023-02-28T14:28:55;22.63;;;14.37;;
12212;SDS011;6169;44.158;22.788;2023-02-28T14:34:20;21.00;;;13.00;;
12212;SDS011;6169;44.158;22.788;2023-02-28T14:39:35;20.13;;;11.60;;
12212;SDS011;6169;44.158;22.788;2023-02-28T14:44:38;24.20;;;14.30;;
12212;SDS011;6169;44.158;22.788;2023-02-28T14:49:42;28.23;;;14.43;;
12212;SDS011;6169;44.158;22.788;2023-02-28T14:54:51;22.40;;;12.93;;
12212;SDS011;6169;44.158;22.788;2023-02-28T14:59:58;20.70;;;13.17;;
12212;SDS011;6169;44.158;22.788;2023-02-28T15:05:14;23.80;;;15.23;;
12212;SDS011;6169;44.158;22.788;2023-02-28T15:10:26;31.03;;;14.80;;
12212;SDS011;6169;44.158;22.788;2023-02-28T15:15:32;28.90;;;15.40;;
12212;SDS011;6169;44.158;22.788;2023-02-28T15:20:43;32.90;;;17.93;;
12212;SDS011;6169;44.158;22.788;2023-02-28T15:25:48;24.60;;;14.83;;
12212;SDS011;6169;44.158;22.788;2023-02-28T15:30:54;22.63;;;14.23;;
12212;SDS011;6169;44.158;22.788;2023-02-28T15:36:03;25.63;;;15.33;;
12212;SDS011;6169;44.158;22.788;2023-02-28T15:41:22;31.10;;;19.23;;
12212;SDS011;6169;44.158;22.788;2023-02-28T15:46:28;30.43;;;17.50;;
12212;SDS011;6169;44.158;22.788;2023-02-28T15:51:32;30.03;;;17.33;;
12212;SDS011;6169;44.158;22.788;2023-02-28T15:56:42;29.23;;;16.00;;
12212;SDS011;6169;44.158;22.788;2023-02-28T16:01:46;27.80;;;16.67;;
12212;SDS011;6169;44.158;22.788;2023-02-28T16:07:04;29.50;;;16.23;;
12212;SDS011;6169;44.158;22.788;2023-02-28T16:12:10;31.07;;;18.00;;
12212;SDS011;6169;44.158;22.788;2023-02-28T16:17:15;30.17;;;19.13;;
12212;SDS011;6169;44.158;22.788;2023-02-28T16:22:21;36.50;;;20.10;;
12212;SDS011;6169;44.158;22.788;2023-02-28T16:27:27;39.00;;;23.07;;
12212;SDS011;6169;44.158;22.788;2023-02-28T16:32:33;36.83;;;22.80;;
12212;SDS011;6169;44.158;22.788;2023-02-28T16:37:37;34.43;;;18.63;;
12212;SDS011;6169;44.158;22.788;2023-02-28T16:42:41;30.07;;;19.87;;
12212;SDS011;6169;44.158;22.788;2023-02-28T16:47:44;36.10;;;22.10;;
12212;SDS011;6169;44.158;22.788;2023-02-28T16:52:47;35.17;;;20.30;;
12212;SDS011;6169;44.158;22.788;2023-02-28T16:57:54;37.47;;;20.53;;
12212;SDS011;6169;44.158;22.788;2023-02-28T17:02:59;37.73;;;22.80;;
12212;SDS011;6169;44.158;22.788;2023-02-28T17:08:02;35.23;;;21.63;;
12212;SDS011;6169;44.158;22.788;2023-02-28T17:13:07;37.77;;;22.60;;
12212;SDS011;6169;44.158;22.788;2023-02-28T17:18:10;42.50;;;23.43;;
12212;SDS011;6169;44.158;22.788;2023-02-28T17:23:17;36.80;;;21.47;;
12212;SDS011;6169;44.158;22.788;2023-02-28T17:28:21;42.40;;;21.60;;
12212;SDS011;6169;44.158;22.788;2023-02-28T17:33:24;39.87;;;23.70;;
12212;SDS011;6169;44.158;22.788;2023-02-28T17:38:27;43.53;;;24.37;;
12212;SDS011;6169;44.158;22.788;2023-02-28T17:43:31;45.30;;;22.57;;
12212;SDS011;6169;44.158;22.788;2023-02-28T17:48:33;37.87;;;21.07;;
12212;SDS011;6169;44.158;22.788;2023-02-28T17:53:36;48.20;;;25.43;;
12212;SDS011;6169;44.158;22.788;2023-02-28T17:58:40;40.07;;;23.23;;
12212;SDS011;6169;44.158;22.788;2023-02-28T18:03:44;37.93;;;21.30;;
12212;SDS011;6169;44.158;22.788;2023-02-28T18:08:48;41.33;;;22.53;;
12212;SDS011;6169;44.158;22.788;2023-02-28T18:13:53;37.30;;;21.20;;
12212;SDS011;6169;44.158;22.788;2023-02-28T18:18:57;39.20;;;21.50;;
12212;SDS011;6169;44.158;22.788;2023-02-28T18:23:59;41.47;;;22.33;;
12212;SDS011;6169;44.158;22.788;2023-02-28T18:29:03;47.37;;;24.97;;
12212;SDS011;6169;44.158;22.788;2023-02-28T18:34:07;59.70;;;30.97;;
12212;SDS011;6169;44.158;22.788;2023-02-28T18:39:10;38.07;;;23.03;;
12212;SDS011;6169;44.158;22.788;2023-02-28T18:44:15;43.93;;;24.53;;
12212;SDS011;6169;44.158;22.788;2023-02-28T18:49:18;41.93;;;22.63;;
12212;SDS011;6169;44.158;22.788;2023-02-28T18:54:22;41.70;;;21.97;;
12212;SDS011;6169;44.158;22.788;2023-02-28T18:59:25;42.80;;;24.63;;
12212;SDS011;6169;44.158;22.788;2023-02-28T19:04:28;41.03;;;21.63;;
12212;SDS011;6169;44.158;22.788;2023-02-28T19:09:31;47.73;;;26.23;;
12212;SDS011;6169;44.158;22.788;2023-02-28T19:14:34;43.93;;;22.40;;
12212;SDS011;6169;44.158;22.788;2023-02-28T19:19:37;52.97;;;27.47;;
12212;SDS011;6169;44.158;22.788;2023-02-28T19:24:39;51.97;;;27.13;;
12212;SDS011;6169;44.158;22.788;2023-02-28T19:29:43;47.43;;;25.73;;
12212;SDS011;6169;44.158;22.788;2023-02-28T19:34:45;47.83;;;26.57;;
12212;SDS011;6169;44.158;22.788;2023-02-28T19:39:48;49.80;;;28.13;;
12212;SDS011;6169;44.158;22.788;2023-02-28T19:44:55;56.23;;;28.40;;
12212;SDS011;6169;44.158;22.788;2023-02-28T19:49:57;57.47;;;29.57;;
12212;SDS011;6169;44.158;22.788;2023-02-28T19:54:59;59.33;;;29.30;;
12212;SDS011;6169;44.158;22.788;2023-02-28T20:00:04;51.47;;;28.23;;
12212;SDS011;6169;44.158;22.788;2023-02-28T20:05:08;54.13;;;26.47;;
12212;SDS011;6169;44.158;22.788;2023-02-28T20:10:11;54.73;;;30.83;;
12212;SDS011;6169;44.158;22.788;2023-02-28T20:15:15;53.83;;;28.33;;
12212;SDS011;6169;44.158;22.788;2023-02-28T20:20:17;51.87;;;28.40;;
12212;SDS011;6169;44.158;22.788;2023-02-28T20:25:20;57.50;;;29.57;;
12212;SDS011;6169;44.158;22.788;2023-02-28T20:30:24;51.13;;;26.30;;
12212;SDS011;6169;44.158;22.788;2023-02-28T20:35:26;55.67;;;26.57;;
12212;SDS011;6169;44.158;22.788;2023-02-28T20:40:28;54.00;;;26.13;;
12212;SDS011;6169;44.158;22.788;2023-02-28T20:45:32;54.93;;;26.47;;
12212;SDS011;6169;44.158;22.788;2023-02-28T20:50:35;55.13;;;26.83;;
12212;SDS011;6169;44.158;22.788;2023-02-28T20:55:37;55.73;;;27.97;;
12212;SDS011;6169;44.158;22.788;2023-02-28T21:00:41;54.80;;;28.03;;
12212;SDS011;6169;44.158;22.788;2023-02-28T21:05:43;46.80;;;23.27;;
12212;SDS011;6169;44.158;22.788;2023-02-28T21:10:45;55.27;;;26.87;;
12212;SDS011;6169;44.158;22.788;2023-02-28T21:15:49;55.57;;;28.10;;
12212;SDS011;6169;44.158;22.788;2023-02-28T21:20:51;46.63;;;26.20;;
12212;SDS011;6169;44.158;22.788;2023-02-28T21:25:54;51.13;;;26.80;;
12212;SDS011;6169;44.158;22.788;2023-02-28T21:31:01;57.07;;;28.03;;
12212;SDS011;6169;44.158;22.788;2023-02-28T21:36:05;54.67;;;26.93;;
12212;SDS011;6169;44.158;22.788;2023-02-28T21:41:09;48.07;;;26.27;;
12212;SDS011;6169;44.158;22.788;2023-02-28T21:46:16;47.20;;;24.70;;
12212;SDS011;6169;44.158;22.788;2023-02-28T21:51:21;52.03;;;26.63;;
12212;SDS011;6169;44.158;22.788;2023-02-28T21:56:26;44.47;;;22.90;;
12212;SDS011;6169;44.158;22.788;2023-02-28T22:01:31;48.30;;;24.40;;
12212;SDS011;6169;44.158;22.788;2023-02-28T22:06:35;62.63;;;28.33;;
12212;SDS011;6169;44.158;22.788;2023-02-28T22:11:40;47.37;;;26.43;;
12212;SDS011;6169;44.158;22.788;2023-02-28T22:16:44;53.53;;;29.30;;
12212;SDS011;6169;44.158;22.788;2023-02-28T22:21:46;56.70;;;28.50;;
12212;SDS011;6169;44.158;22.788;2023-02-28T22:26:49;51.80;;;28.00;;
12212;SDS011;6169;44.158;22.788;2023-02-28T22:31:53;49.00;;;24.60;;
12212;SDS011;6169;44.158;22.788;2023-02-28T22:36:55;52.20;;;26.90;;
12212;SDS011;6169;44.158;22.788;2023-02-28T22:41:57;64.83;;;30.63;;
12212;SDS011;6169;44.158;22.788;2023-02-28T22:47:01;48.33;;;25.03;;
12212;SDS011;6169;44.158;22.788;2023-02-28T22:52:04;42.43;;;24.30;;
12212;SDS011;6169;44.158;22.788;2023-02-28T22:57:06;48.37;;;26.77;;
12212;SDS011;6169;44.158;22.788;2023-02-28T23:02:10;48.00;;;26.30;;
12212;SDS011;6169;44.158;22.788;2023-02-28T23:07:12;51.43;;;27.10;;
12212;SDS011;6169;44.158;22.788;2023-02-28T23:12:15;53.00;;;28.47;;
12212;SDS011;6169;44.158;22.788;2023-02-28T23:17:19;57.23;;;29.07;;
12212;SDS011;6169;44.158;22.788;2023-02-28T23:22:21;52.80;;;29.77;;
12212;SDS011;6169;44.158;22.788;2023-02-28T23:27:24;55.80;;;28.53;;
12212;SDS011;6169;44.158;22.788;2023-02-28T23:32:28;58.63;;;29.43;;
12212;SDS011;6169;44.158;22.788;2023-02-28T23:37:30;45.73;;;25.13;;
12212;SDS011;6169;44.158;22.788;2023-02-28T23:42:32;53.20;;;27.93;;
12212;SDS011;6169;44.158;22.788;2023-02-28T23:47:36;52.53;;;27.60;;
12212;SDS011;6169;44.158;22.788;2023-02-28T23:52:39;52.57;;;28.47;;
12212;SDS011;6169;44.158;22.788;2023-02-28T23:57:41;47.57;;;25.77;;
